N577JC SLET-SLTR
Flight info
| Callsign | N577JC |
|---|---|
| Flight time | 1h 2m |
| Altitude | 34000 |
| Route | VIR UN420 TRI |
| Aircraft | C750/M-V/N |
Departure
| Time | 2026-04-26 20:29 |
|---|---|
| Airport | El Trompillo Airport (SLET) |
Arrival
| Time | 2026-04-26 21:32 |
|---|---|
| Airport | Teniente Av. Jorge Henrich Arauz Airport (SLTR) |
| Time | Latitude | Longitude | Altitude | Speed | Heading |
|---|---|---|---|---|---|
| 2026-04-26 20:18 | -17.80175 | -63.17608 | 1375 ft | 0 kts | 82° |
| 2026-04-26 20:22 | -17.80176 | -63.17612 | 1375 ft | 2 kts | 82° |
| 2026-04-26 20:23 | -17.80180 | -63.17628 | 1375 ft | 3 kts | 63° |
| 2026-04-26 20:23 | -17.80192 | -63.17645 | 1375 ft | 3 kts | 40° |
| 2026-04-26 20:23 | -17.80210 | -63.17655 | 1375 ft | 3 kts | 20° |
| 2026-04-26 20:23 | -17.80215 | -63.17657 | 1375 ft | 0 kts | 17° |
| 2026-04-26 20:25 | -17.80214 | -63.17657 | 1375 ft | 0 kts | 17° |
| 2026-04-26 20:25 | -17.80208 | -63.17656 | 1375 ft | 3 kts | 353° |
| 2026-04-26 20:26 | -17.80178 | -63.17666 | 1375 ft | 6 kts | 342° |
| 2026-04-26 20:26 | -17.80133 | -63.17682 | 1375 ft | 7 kts | 333° |
| 2026-04-26 20:26 | -17.80102 | -63.17708 | 1375 ft | 1 kts | 304° |
| 2026-04-26 20:26 | -17.80090 | -63.17739 | 1375 ft | 7 kts | 289° |
| 2026-04-26 20:27 | -17.80077 | -63.17797 | 1375 ft | 8 kts | 283° |
| 2026-04-26 20:27 | -17.80064 | -63.17846 | 1375 ft | 5 kts | 284° |
| 2026-04-26 20:27 | -17.80063 | -63.17849 | 1375 ft | 0 kts | 283° |
| 2026-04-26 20:27 | -17.80063 | -63.17850 | 1375 ft | 0 kts | 283° |
| 2026-04-26 20:28 | -17.80058 | -63.17875 | 1375 ft | 7 kts | 277° |
| 2026-04-26 20:28 | -17.80082 | -63.17934 | 1375 ft | 12 kts | 199° |
| 2026-04-26 20:29 | -17.80215 | -63.17847 | 1375 ft | 58 kts | 144° |
| 2026-04-26 20:29 | -17.80876 | -63.17348 | 1376 ft | 177 kts | 144° |
| 2026-04-26 20:29 | -17.81979 | -63.16520 | 2888 ft | 205 kts | 144° |
| 2026-04-26 20:29 | -17.83287 | -63.15529 | 4498 ft | 264 kts | 141° |
| 2026-04-26 20:30 | -17.84122 | -63.14545 | 5916 ft | 276 kts | 122° |
| 2026-04-26 20:30 | -17.84867 | -63.12457 | 7499 ft | 336 kts | 98° |
| 2026-04-26 20:30 | -17.84621 | -63.09935 | 9520 ft | 364 kts | 72° |
| 2026-04-26 20:30 | -17.83403 | -63.07500 | 11207 ft | 404 kts | 53° |
| 2026-04-26 20:31 | -17.82726 | -63.06643 | 11585 ft | 426 kts | 46° |
| 2026-04-26 20:31 | -17.80502 | -63.04763 | 12463 ft | 478 kts | 30° |
| 2026-04-26 20:31 | -17.77521 | -63.03746 | 14181 ft | 422 kts | 1° |
| 2026-04-26 20:31 | -17.73778 | -63.04644 | 15679 ft | 433 kts | 332° |
| 2026-04-26 20:32 | -17.72101 | -63.05733 | 16202 ft | 409 kts | 322° |
| 2026-04-26 20:32 | -17.70006 | -63.07695 | 17134 ft | 405 kts | 313° |
| 2026-04-26 20:32 | -17.67987 | -63.09790 | 18034 ft | 406 kts | 313° |
| 2026-04-26 20:32 | -17.65965 | -63.11872 | 18912 ft | 409 kts | 313° |
| 2026-04-26 20:33 | -17.63934 | -63.13947 | 19783 ft | 412 kts | 314° |
| 2026-04-26 20:33 | -17.61703 | -63.15894 | 20601 ft | 424 kts | 320° |
| 2026-04-26 20:33 | -17.60618 | -63.16724 | 20950 ft | 425 kts | 322° |
| 2026-04-26 20:33 | -17.58163 | -63.18445 | 21705 ft | 429 kts | 324° |
| 2026-04-26 20:34 | -17.55621 | -63.20098 | 22458 ft | 434 kts | 326° |
| 2026-04-26 20:34 | -17.53005 | -63.21734 | 23215 ft | 438 kts | 327° |
| 2026-04-26 20:34 | -17.50351 | -63.23365 | 23970 ft | 443 kts | 327° |
| 2026-04-26 20:34 | -17.47653 | -63.25013 | 24729 ft | 448 kts | 327° |
| 2026-04-26 20:35 | -17.44950 | -63.26666 | 25481 ft | 452 kts | 327° |
| 2026-04-26 20:35 | -17.42244 | -63.28328 | 26227 ft | 457 kts | 327° |
| 2026-04-26 20:35 | -17.39497 | -63.30024 | 26977 ft | 462 kts | 327° |
| 2026-04-26 20:35 | -17.36717 | -63.31749 | 27729 ft | 467 kts | 327° |
| 2026-04-26 20:36 | -17.33897 | -63.33509 | 28484 ft | 472 kts | 326° |
| 2026-04-26 20:36 | -17.31072 | -63.35279 | 29234 ft | 477 kts | 326° |
| 2026-04-26 20:36 | -17.28208 | -63.37081 | 29987 ft | 482 kts | 326° |
| 2026-04-26 20:36 | -17.25312 | -63.38909 | 30742 ft | 487 kts | 326° |
| 2026-04-26 20:37 | -17.22417 | -63.40741 | 31488 ft | 492 kts | 326° |
| 2026-04-26 20:37 | -17.19475 | -63.42607 | 32238 ft | 497 kts | 326° |
| 2026-04-26 20:37 | -17.16468 | -63.44517 | 32998 ft | 502 kts | 326° |
| 2026-04-26 20:37 | -17.13483 | -63.46416 | 33745 ft | 506 kts | 326° |
| 2026-04-26 20:38 | -17.10465 | -63.48338 | 34005 ft | 519 kts | 326° |
| 2026-04-26 20:38 | -17.04510 | -63.52707 | 34003 ft | 517 kts | 311° |
| 2026-04-26 20:38 | -17.02535 | -63.55783 | 34000 ft | 512 kts | 294° |
| 2026-04-26 20:39 | -17.01565 | -63.59352 | 34000 ft | 510 kts | 276° |
| 2026-04-26 20:39 | -17.01704 | -63.63047 | 34000 ft | 510 kts | 259° |
| 2026-04-26 20:39 | -17.02934 | -63.66517 | 34000 ft | 513 kts | 242° |
| 2026-04-26 20:39 | -17.05147 | -63.69446 | 34000 ft | 517 kts | 225° |
| 2026-04-26 20:40 | -17.08103 | -63.71533 | 34000 ft | 523 kts | 208° |
| 2026-04-26 20:40 | -17.11647 | -63.72628 | 34000 ft | 531 kts | 190° |
| 2026-04-26 20:40 | -17.15338 | -63.72569 | 34000 ft | 538 kts | 173° |
| 2026-04-26 20:40 | -17.18956 | -63.71532 | 34002 ft | 543 kts | 162° |
| 2026-04-26 20:41 | -17.22462 | -63.69930 | 34001 ft | 545 kts | 156° |
| 2026-04-26 20:41 | -17.29036 | -63.66034 | 34002 ft | 547 kts | 150° |
| 2026-04-26 20:42 | -17.35445 | -63.61711 | 34000 ft | 547 kts | 148° |
| 2026-04-26 20:42 | -17.41776 | -63.57256 | 33996 ft | 547 kts | 148° |
| 2026-04-26 20:43 | -17.48071 | -63.52760 | 33996 ft | 547 kts | 148° |
| 2026-04-26 20:43 | -17.54254 | -63.48167 | 33996 ft | 548 kts | 144° |
| 2026-04-26 20:44 | -17.60176 | -63.43039 | 33996 ft | 549 kts | 141° |
| 2026-04-26 20:44 | -17.65774 | -63.37592 | 33996 ft | 551 kts | 137° |
| 2026-04-26 20:45 | -17.71067 | -63.31740 | 33996 ft | 552 kts | 133° |
| 2026-04-26 20:45 | -17.76028 | -63.25590 | 33996 ft | 553 kts | 131° |
| 2026-04-26 20:45 | -17.78220 | -63.22241 | 33992 ft | 555 kts | 118° |
| 2026-04-26 20:46 | -17.79461 | -63.18419 | 33996 ft | 558 kts | 101° |
| 2026-04-26 20:46 | -17.79619 | -63.14362 | 33998 ft | 559 kts | 84° |
| 2026-04-26 20:46 | -17.78677 | -63.10429 | 33999 ft | 557 kts | 67° |
| 2026-04-26 20:46 | -17.76792 | -63.06897 | 33999 ft | 552 kts | 51° |
| 2026-04-26 20:47 | -17.74183 | -63.04207 | 33999 ft | 512 kts | 33° |
| 2026-04-26 20:47 | -17.72144 | -63.02987 | 33999 ft | 487 kts | 21° |
| 2026-04-26 20:47 | -17.67947 | -63.02146 | 33998 ft | 448 kts | 354° |
| 2026-04-26 20:47 | -17.65002 | -63.02847 | 33996 ft | 421 kts | 333° |
| 2026-04-26 20:48 | -17.62639 | -63.04507 | 33998 ft | 399 kts | 316° |
| 2026-04-26 20:48 | -17.60716 | -63.06530 | 33998 ft | 383 kts | 310° |
| 2026-04-26 20:48 | -17.59025 | -63.08591 | 33998 ft | 371 kts | 307° |
| 2026-04-26 20:48 | -17.57379 | -63.10739 | 33999 ft | 384 kts | 306° |
| 2026-04-26 20:49 | -17.55655 | -63.13009 | 34002 ft | 420 kts | 307° |
| 2026-04-26 20:49 | -17.53651 | -63.15436 | 34003 ft | 459 kts | 310° |
| 2026-04-26 20:49 | -17.51362 | -63.17906 | 34001 ft | 484 kts | 314° |
| 2026-04-26 20:49 | -17.48935 | -63.20291 | 33999 ft | 459 kts | 314° |
| 2026-04-26 20:50 | -17.47081 | -63.22841 | 33997 ft | 433 kts | 296° |
| 2026-04-26 20:50 | -17.46256 | -63.25780 | 33998 ft | 412 kts | 275° |
| 2026-04-26 20:50 | -17.46379 | -63.28728 | 34000 ft | 396 kts | 265° |
| 2026-04-26 20:50 | -17.46252 | -63.31541 | 33994 ft | 382 kts | 283° |
| 2026-04-26 20:51 | -17.45103 | -63.33995 | 33994 ft | 372 kts | 306° |
| 2026-04-26 20:51 | -17.43131 | -63.35676 | 33995 ft | 367 kts | 329° |
| 2026-04-26 20:51 | -17.40747 | -63.36664 | 34001 ft | 382 kts | 339° |
| 2026-04-26 20:51 | -17.38045 | -63.37466 | 34005 ft | 419 kts | 341° |
| 2026-04-26 20:52 | -17.35120 | -63.38319 | 34006 ft | 458 kts | 341° |
| 2026-04-26 20:52 | -17.31932 | -63.39377 | 34002 ft | 487 kts | 338° |
| 2026-04-26 20:52 | -17.28714 | -63.40599 | 33999 ft | 494 kts | 336° |
| 2026-04-26 20:53 | -17.26831 | -63.41378 | 33999 ft | 497 kts | 335° |
| 2026-04-26 20:54 | -17.23969 | -63.42644 | 34003 ft | 502 kts | 334° |
| 2026-04-26 20:54 | -17.20691 | -63.43882 | 34000 ft | 496 kts | 345° |
| 2026-04-26 20:54 | -17.17324 | -63.44059 | 33998 ft | 475 kts | 4° |
| 2026-04-26 20:54 | -17.14193 | -63.43208 | 34001 ft | 460 kts | 15° |
| 2026-04-26 20:55 | -17.11148 | -63.42478 | 33995 ft | 436 kts | 0° |
| 2026-04-26 20:55 | -17.08255 | -63.42838 | 33994 ft | 410 kts | 339° |
| 2026-04-26 20:55 | -17.05805 | -63.44169 | 33997 ft | 389 kts | 322° |
| 2026-04-26 20:55 | -17.03792 | -63.45978 | 33995 ft | 372 kts | 310° |
| 2026-04-26 20:56 | -17.02545 | -63.48229 | 33993 ft | 354 kts | 285° |
| 2026-04-26 20:56 | -17.02375 | -63.50728 | 33995 ft | 340 kts | 261° |
| 2026-04-26 20:56 | -17.03169 | -63.53022 | 33998 ft | 331 kts | 244° |
| 2026-04-26 20:56 | -17.04078 | -63.55164 | 33993 ft | 319 kts | 257° |
| 2026-04-26 20:57 | -17.04064 | -63.57425 | 33991 ft | 308 kts | 285° |
| 2026-04-26 20:57 | -17.02997 | -63.59328 | 33993 ft | 304 kts | 313° |
| 2026-04-26 20:57 | -17.01180 | -63.60394 | 33994 ft | 305 kts | 342° |
| 2026-04-26 20:57 | -16.99071 | -63.60370 | 33994 ft | 311 kts | 12° |
| 2026-04-26 20:58 | -16.97171 | -63.59270 | 33998 ft | 315 kts | 36° |
| 2026-04-26 20:58 | -16.94127 | -63.55974 | 33995 ft | 313 kts | 33° |
| 2026-04-26 20:58 | -16.92184 | -63.55077 | 33994 ft | 300 kts | 2° |
| 2026-04-26 20:59 | -16.90196 | -63.55320 | 33997 ft | 285 kts | 332° |
| 2026-04-26 20:59 | -16.88694 | -63.56571 | 33998 ft | 274 kts | 301° |
| 2026-04-26 20:59 | -16.88120 | -63.58437 | 33998 ft | 270 kts | 269° |
| 2026-04-26 20:59 | -16.88531 | -63.60300 | 34003 ft | 272 kts | 249° |
| 2026-04-26 21:01 | -16.88753 | -63.60808 | 34003 ft | 273 kts | 246° |
| 2026-04-26 21:01 | -16.89696 | -63.62560 | 34003 ft | 280 kts | 243° |
| 2026-04-26 21:02 | -16.90262 | -63.64570 | 34004 ft | 307 kts | 269° |
| 2026-04-26 21:02 | -16.89767 | -63.66844 | 34010 ft | 346 kts | 295° |
| 2026-04-26 21:02 | -16.88161 | -63.68909 | 34012 ft | 390 kts | 318° |
| 2026-04-26 21:02 | -16.85743 | -63.70463 | 34013 ft | 432 kts | 330° |
| 2026-04-26 21:03 | -16.82848 | -63.71820 | 34008 ft | 470 kts | 334° |
| 2026-04-26 21:03 | -16.79715 | -63.73152 | 34002 ft | 499 kts | 335° |
| 2026-04-26 21:03 | -16.76447 | -63.74542 | 33999 ft | 519 kts | 335° |
| 2026-04-26 21:03 | -16.73103 | -63.76017 | 33997 ft | 530 kts | 334° |
| 2026-04-26 21:04 | -16.69673 | -63.77603 | 33996 ft | 537 kts | 333° |
| 2026-04-26 21:04 | -16.62894 | -63.80950 | 33996 ft | 539 kts | 331° |
| 2026-04-26 21:05 | -16.56257 | -63.84463 | 33996 ft | 528 kts | 330° |
| 2026-04-26 21:05 | -16.49821 | -63.88049 | 33996 ft | 523 kts | 329° |
| 2026-04-26 21:06 | -16.43519 | -63.91697 | 33996 ft | 520 kts | 328° |
| 2026-04-26 21:06 | -16.37194 | -63.95460 | 33996 ft | 518 kts | 327° |
| 2026-04-26 21:07 | -16.31002 | -63.99216 | 33996 ft | 517 kts | 327° |
| 2026-04-26 21:07 | -16.24787 | -64.03038 | 33996 ft | 516 kts | 327° |
| 2026-04-26 21:08 | -16.19469 | -64.06336 | 33996 ft | 515 kts | 327° |
| 2026-04-26 21:08 | -16.18333 | -64.07043 | 33996 ft | 515 kts | 327° |
| 2026-04-26 21:09 | -16.12151 | -64.10903 | 33996 ft | 515 kts | 327° |
| 2026-04-26 21:09 | -16.07404 | -64.13877 | 33996 ft | 515 kts | 326° |
| 2026-04-26 21:10 | -16.03087 | -64.16587 | 33996 ft | 515 kts | 326° |
| 2026-04-26 21:10 | -15.98488 | -64.19478 | 33996 ft | 515 kts | 326° |
| 2026-04-26 21:11 | -15.92362 | -64.23330 | 33996 ft | 515 kts | 326° |
| 2026-04-26 21:11 | -15.86222 | -64.27195 | 33971 ft | 515 kts | 326° |
| 2026-04-26 21:11 | -15.83173 | -64.29113 | 33540 ft | 498 kts | 326° |
| 2026-04-26 21:12 | -15.82569 | -64.29491 | 33431 ft | 493 kts | 326° |
| 2026-04-26 21:12 | -15.80959 | -64.30500 | 33111 ft | 481 kts | 326° |
| 2026-04-26 21:12 | -15.78125 | -64.32276 | 32497 ft | 466 kts | 326° |
| 2026-04-26 21:12 | -15.75375 | -64.34000 | 31874 ft | 456 kts | 326° |
| 2026-04-26 21:13 | -15.72682 | -64.35690 | 31251 ft | 449 kts | 326° |
| 2026-04-26 21:13 | -15.70033 | -64.37354 | 30626 ft | 443 kts | 326° |
| 2026-04-26 21:13 | -15.67424 | -64.38993 | 30101 ft | 435 kts | 326° |
| 2026-04-26 21:13 | -15.64844 | -64.40616 | 29513 ft | 429 kts | 326° |
| 2026-04-26 21:14 | -15.62316 | -64.42206 | 28898 ft | 425 kts | 326° |
| 2026-04-26 21:14 | -15.59788 | -64.43796 | 28271 ft | 421 kts | 326° |
| 2026-04-26 21:14 | -15.57301 | -64.45361 | 27648 ft | 418 kts | 326° |
| 2026-04-26 21:14 | -15.54805 | -64.46932 | 27017 ft | 415 kts | 326° |
| 2026-04-26 21:15 | -15.52338 | -64.48484 | 26389 ft | 412 kts | 326° |
| 2026-04-26 21:15 | -15.49923 | -64.50002 | 25771 ft | 409 kts | 326° |
| 2026-04-26 21:15 | -15.49287 | -64.50402 | 25607 ft | 408 kts | 326° |
| 2026-04-26 21:16 | -15.48023 | -64.51196 | 25281 ft | 407 kts | 326° |
| 2026-04-26 21:16 | -15.45617 | -64.52708 | 24658 ft | 404 kts | 326° |
| 2026-04-26 21:16 | -15.43224 | -64.54211 | 24034 ft | 402 kts | 326° |
| 2026-04-26 21:16 | -15.40843 | -64.55706 | 23410 ft | 400 kts | 326° |
| 2026-04-26 21:17 | -15.38452 | -64.57207 | 22779 ft | 397 kts | 326° |
| 2026-04-26 21:17 | -15.36079 | -64.58695 | 22150 ft | 395 kts | 326° |
| 2026-04-26 21:17 | -15.33735 | -64.60166 | 21525 ft | 393 kts | 326° |
| 2026-04-26 21:17 | -15.31395 | -64.61633 | 20898 ft | 391 kts | 326° |
| 2026-04-26 21:18 | -15.29086 | -64.63080 | 20275 ft | 389 kts | 326° |
| 2026-04-26 21:18 | -15.26792 | -64.64517 | 19654 ft | 387 kts | 326° |
| 2026-04-26 21:18 | -15.24476 | -64.65968 | 19024 ft | 385 kts | 326° |
| 2026-04-26 21:18 | -15.22195 | -64.67396 | 18400 ft | 383 kts | 326° |
| 2026-04-26 21:19 | -15.19911 | -64.68826 | 17773 ft | 381 kts | 326° |
| 2026-04-26 21:19 | -15.17644 | -64.70246 | 17147 ft | 380 kts | 326° |
| 2026-04-26 21:19 | -15.15382 | -64.71661 | 16519 ft | 378 kts | 326° |
| 2026-04-26 21:19 | -15.13144 | -64.73061 | 15897 ft | 376 kts | 326° |
| 2026-04-26 21:20 | -15.10911 | -64.74457 | 15272 ft | 375 kts | 326° |
| 2026-04-26 21:20 | -15.08670 | -64.75859 | 14643 ft | 373 kts | 326° |
| 2026-04-26 21:20 | -15.06450 | -64.77246 | 14018 ft | 372 kts | 326° |
| 2026-04-26 21:20 | -15.04230 | -64.78634 | 13390 ft | 371 kts | 326° |
| 2026-04-26 21:21 | -15.02048 | -64.79997 | 12771 ft | 369 kts | 326° |
| 2026-04-26 21:21 | -14.99829 | -64.81383 | 12139 ft | 368 kts | 326° |
| 2026-04-26 21:21 | -14.97649 | -64.82744 | 11515 ft | 367 kts | 326° |
| 2026-04-26 21:21 | -14.95467 | -64.84107 | 10889 ft | 365 kts | 326° |
| 2026-04-26 21:22 | -14.93320 | -64.85441 | 10271 ft | 360 kts | 326° |
| 2026-04-26 21:22 | -14.91183 | -64.86767 | 9476 ft | 354 kts | 326° |
| 2026-04-26 21:22 | -14.88926 | -64.87823 | 8717 ft | 352 kts | 338° |
| 2026-04-26 21:23 | -14.84164 | -64.88879 | 7181 ft | 350 kts | 348° |
| 2026-04-26 21:23 | -14.81770 | -64.89228 | 6434 ft | 346 kts | 349° |
| 2026-04-26 21:23 | -14.79398 | -64.89545 | 5684 ft | 341 kts | 351° |
| 2026-04-26 21:23 | -14.77046 | -64.89874 | 4929 ft | 337 kts | 351° |
| 2026-04-26 21:24 | -14.74735 | -64.90232 | 4184 ft | 341 kts | 351° |
| 2026-04-26 21:24 | -14.72378 | -64.90724 | 3428 ft | 348 kts | 343° |
| 2026-04-26 21:24 | -14.70126 | -64.91628 | 2987 ft | 344 kts | 335° |
| 2026-04-26 21:24 | -14.68038 | -64.92698 | 2996 ft | 329 kts | 332° |
| 2026-04-26 21:25 | -14.66087 | -64.93845 | 3032 ft | 315 kts | 324° |
| 2026-04-26 21:25 | -14.64783 | -64.95554 | 3166 ft | 300 kts | 290° |
| 2026-04-26 21:25 | -14.64780 | -64.97634 | 3289 ft | 289 kts | 249° |
| 2026-04-26 21:25 | -14.66082 | -64.99115 | 3356 ft | 282 kts | 209° |
| 2026-04-26 21:26 | -14.67961 | -64.99547 | 3309 ft | 282 kts | 179° |
| 2026-04-26 21:26 | -14.69946 | -64.99162 | 2638 ft | 301 kts | 164° |
| 2026-04-26 21:26 | -14.71931 | -64.98524 | 2177 ft | 288 kts | 162° |
| 2026-04-26 21:26 | -14.73759 | -64.97828 | 1859 ft | 272 kts | 158° |
| 2026-04-26 21:27 | -14.75449 | -64.97066 | 1513 ft | 258 kts | 155° |
| 2026-04-26 21:27 | -14.76982 | -64.96225 | 1334 ft | 243 kts | 148° |
| 2026-04-26 21:27 | -14.78326 | -64.95254 | 1142 ft | 232 kts | 142° |
| 2026-04-26 21:27 | -14.79552 | -64.94198 | 902 ft | 226 kts | 138° |
| 2026-04-26 21:28 | -14.80776 | -64.92957 | 563 ft | 301 kts | 135° |
| 2026-04-26 21:28 | -14.82639 | -64.91025 | 863 ft | 440 kts | 132° |
| 2026-04-26 21:28 | -14.84514 | -64.88257 | 2293 ft | 466 kts | 117° |
| 2026-04-26 21:28 | -14.85407 | -64.85284 | 2908 ft | 400 kts | 96° |
| 2026-04-26 21:29 | -14.85675 | -64.82673 | 3093 ft | 336 kts | 106° |
| 2026-04-26 21:29 | -14.86514 | -64.81047 | 2921 ft | 303 kts | 130° |
| 2026-04-26 21:29 | -14.88253 | -64.80166 | 2811 ft | 277 kts | 179° |
| 2026-04-26 21:29 | -14.89972 | -64.80929 | 2426 ft | 275 kts | 229° |
| 2026-04-26 21:30 | -14.90636 | -64.82707 | 2125 ft | 272 kts | 268° |
| 2026-04-26 21:30 | -14.89942 | -64.84471 | 1585 ft | 269 kts | 313° |
| 2026-04-26 21:30 | -14.88445 | -64.85631 | 967 ft | 271 kts | 326° |
| 2026-04-26 21:30 | -14.87442 | -64.86353 | 890 ft | 256 kts | 323° |
| 2026-04-26 21:31 | -14.85725 | -64.87856 | 772 ft | 228 kts | 319° |
| 2026-04-26 21:31 | -14.84629 | -64.88945 | 711 ft | 212 kts | 314° |
| 2026-04-26 21:31 | -14.83615 | -64.89993 | 675 ft | 200 kts | 315° |
| 2026-04-26 21:31 | -14.82654 | -64.91002 | 544 ft | 195 kts | 314° |
| 2026-04-26 21:32 | -14.81837 | -64.91848 | 514 ft | 98 kts | 312° |
| 2026-04-26 21:32 | -14.81682 | -64.92007 | 513 ft | 0 kts | 26° |
| 2026-04-26 21:32 | -14.81677 | -64.92003 | 513 ft | 3 kts | 52° |
| 2026-04-26 21:32 | -14.81695 | -64.91969 | 513 ft | 9 kts | 136° |
| 2026-04-26 21:33 | -14.81766 | -64.91903 | 513 ft | 18 kts | 138° |
| 2026-04-26 21:33 | -14.81879 | -64.91831 | 513 ft | 20 kts | 174° |
| 2026-04-26 21:33 | -14.82010 | -64.91834 | 513 ft | 17 kts | 182° |
| 2026-04-26 21:33 | -14.82086 | -64.91849 | 513 ft | 8 kts | 218° |
| 2026-04-26 21:34 | -14.82104 | -64.91866 | 513 ft | 2 kts | 223° |
| 2026-04-26 21:34 | -14.82125 | -64.91886 | 513 ft | 4 kts | 223° |
| 2026-04-26 21:34 | -14.82143 | -64.91903 | 513 ft | 4 kts | 209° |
| 2026-04-26 21:34 | -14.82166 | -64.91900 | 513 ft | 3 kts | 119° |
| 2026-04-26 21:35 | -14.82171 | -64.91886 | 513 ft | 0 kts | 125° |
| 2026-04-26 21:35 | -14.82172 | -64.91885 | 513 ft | 0 kts | 128° |
| 2026-04-26 21:36 | -17.80176 | -63.17611 | 1371 ft | 0 kts | 82° |